createdAt,value
2023-04-18T00:00:16.690Z,26.59
2023-04-18T00:01:16.728Z,30.47
2023-04-18T00:02:16.840Z,27.13
2023-04-18T00:03:16.947Z,25.40
2023-04-18T00:04:17.156Z,25.26
2023-04-18T00:05:16.884Z,30.92
2023-04-18T00:06:16.895Z,29.80
2023-04-18T00:07:16.880Z,30.87
2023-04-18T00:08:16.928Z,33.70
2023-04-18T00:09:17.041Z,31.22
2023-04-18T00:10:16.965Z,29.42
2023-04-18T00:11:17.001Z,29.03
2023-04-18T00:12:17.037Z,33.63
2023-04-18T00:13:17.069Z,29.53
2023-04-18T00:14:17.120Z,30.33
2023-04-18T00:15:17.114Z,28.85
2023-04-18T00:16:17.193Z,28.56
2023-04-18T00:17:17.190Z,29.41
2023-04-18T00:18:17.253Z,29.74
2023-04-18T00:19:17.273Z,31.49
2023-04-18T00:20:17.289Z,29.98
2023-04-18T00:21:17.331Z,31.88
2023-04-18T00:22:17.346Z,30.67
2023-04-18T00:23:17.379Z,27.94
2023-04-18T00:24:17.443Z,27.30
2023-04-18T00:25:17.452Z,30.09
2023-04-18T00:26:17.473Z,30.99
2023-04-18T00:27:17.505Z,30.46
2023-04-18T00:28:17.529Z,29.01
2023-04-18T00:29:17.616Z,30.29
2023-04-18T00:30:17.591Z,31.92
2023-04-18T00:31:17.710Z,30.36
2023-04-18T00:32:17.669Z,29.38
2023-04-18T00:33:17.691Z,26.08
2023-04-18T00:34:17.743Z,28.89
2023-04-18T00:35:17.777Z,29.13
2023-04-18T00:36:17.774Z,29.65
2023-04-18T00:37:17.805Z,31.85
2023-04-18T00:38:17.868Z,29.43
2023-04-18T00:39:17.895Z,27.87
2023-04-18T00:40:17.920Z,28.03
2023-04-18T00:41:17.947Z,29.39
2023-04-18T00:42:17.946Z,31.11
2023-04-18T00:43:18.037Z,29.27
2023-04-18T00:44:18.661Z,30.00
2023-04-18T00:45:18.051Z,28.97
2023-04-18T00:46:18.154Z,30.42
2023-04-18T00:47:18.128Z,29.12
2023-04-18T00:48:18.156Z,26.58
2023-04-18T00:49:18.193Z,26.66
2023-04-18T00:50:18.182Z,31.15
2023-04-18T00:51:18.222Z,29.38
2023-04-18T00:52:18.251Z,30.15
2023-04-18T00:53:18.290Z,28.60
2023-04-18T00:54:18.406Z,27.08
2023-04-18T00:55:18.340Z,28.01
2023-04-18T00:56:18.374Z,25.56
2023-04-18T00:57:18.379Z,31.66
2023-04-18T00:58:18.424Z,30.79
2023-04-18T00:59:18.485Z,28.95
2023-04-18T01:00:18.501Z,28.80
2023-04-18T01:01:18.529Z,27.79
2023-04-18T01:02:18.616Z,28.87
2023-04-18T01:03:18.661Z,30.93
2023-04-18T01:04:18.983Z,25.06
2023-04-18T01:05:18.673Z,31.16
2023-04-18T01:06:18.667Z,27.09
2023-04-18T01:07:18.690Z,31.19
2023-04-18T01:08:18.714Z,28.25
2023-04-18T01:09:18.777Z,27.57
2023-04-18T01:10:18.807Z,26.74
2023-04-18T01:11:18.874Z,27.98
2023-04-18T01:12:18.851Z,28.50
2023-04-18T01:13:18.866Z,30.45
2023-04-18T01:14:18.929Z,27.14
2023-04-18T01:15:18.954Z,29.46
2023-04-18T01:16:19.043Z,29.49
2023-04-18T01:17:19.047Z,30.57
2023-04-18T01:18:19.065Z,30.91
2023-04-18T01:19:19.103Z,28.54
2023-04-18T01:20:19.096Z,28.53
2023-04-18T01:21:19.122Z,32.45
2023-04-18T01:22:19.145Z,29.36
2023-04-18T01:23:19.196Z,29.01
2023-04-18T01:24:19.211Z,29.24
2023-04-18T01:25:19.285Z,30.79
2023-04-18T01:26:19.283Z,27.04
2023-04-18T01:27:19.295Z,29.11
2023-04-18T01:28:19.352Z,29.59
2023-04-18T01:29:19.412Z,27.61
2023-04-18T01:30:19.406Z,28.83
2023-04-18T01:31:19.451Z,31.05
2023-04-18T01:32:19.447Z,30.95
2023-04-18T01:33:19.487Z,29.66
2023-04-18T01:34:19.552Z,30.48
2023-04-18T01:35:19.543Z,30.23
2023-04-18T01:36:19.587Z,31.43
2023-04-18T01:37:19.603Z,28.40
2023-04-18T01:38:19.689Z,26.49
2023-04-18T01:39:19.682Z,28.57
2023-04-18T01:40:19.709Z,26.63
2023-04-18T01:41:19.734Z,30.38
2023-04-18T01:42:19.792Z,30.29
2023-04-18T01:43:19.824Z,30.75
2023-04-18T01:44:19.845Z,27.97
2023-04-18T01:45:19.848Z,29.83
2023-04-18T01:46:19.912Z,29.20
2023-04-18T01:47:19.923Z,30.42
2023-04-18T01:48:19.933Z,28.07
2023-04-18T01:49:19.963Z,28.71
2023-04-18T01:50:20.035Z,30.72
2023-04-18T01:51:20.021Z,27.91
2023-04-18T01:52:20.046Z,30.04
2023-04-18T01:53:20.074Z,35.06
2023-04-18T01:54:20.136Z,30.44
2023-04-18T01:55:20.190Z,29.70
2023-04-18T01:56:20.189Z,32.76
2023-04-18T01:57:20.203Z,30.50
2023-04-18T01:58:20.245Z,28.56
2023-04-18T01:59:20.296Z,30.70
2023-04-18T02:00:20.364Z,29.39
2023-04-18T02:01:20.526Z,28.70
2023-04-18T02:02:20.562Z,27.81
2023-04-18T02:03:20.570Z,31.75
2023-04-18T02:04:20.463Z,30.06
2023-04-18T02:05:20.471Z,29.87
2023-04-18T02:06:21.192Z,30.30
2023-04-18T02:07:20.549Z,28.83
2023-04-18T02:08:20.558Z,27.19
2023-04-18T02:09:20.605Z,28.88
2023-04-18T02:10:20.636Z,31.51
2023-04-18T02:11:20.705Z,27.31
2023-04-18T02:12:20.718Z,28.86
2023-04-18T02:13:20.713Z,30.10
2023-04-18T02:14:20.752Z,29.02
2023-04-18T02:15:20.792Z,31.33
2023-04-18T02:16:20.843Z,27.28
2023-04-18T02:17:20.836Z,28.17
2023-04-18T02:18:20.870Z,27.70
2023-04-18T02:19:20.909Z,30.23
2023-04-18T02:20:20.947Z,29.79
2023-04-18T02:21:20.978Z,28.73
2023-04-18T02:22:21.007Z,28.99
2023-04-18T02:23:21.034Z,27.80
2023-04-18T02:24:21.095Z,29.19
2023-04-18T02:25:21.110Z,27.02
2023-04-18T02:26:21.116Z,25.44
2023-04-18T02:27:21.151Z,28.21
2023-04-18T02:28:21.195Z,28.51
2023-04-18T02:29:21.250Z,30.79
2023-04-18T02:30:21.317Z,29.27
2023-04-18T02:31:21.397Z,29.29
2023-04-18T02:32:21.364Z,29.85
2023-04-18T02:33:21.363Z,30.41
2023-04-18T02:34:21.383Z,28.22
2023-04-18T02:35:21.408Z,28.62
2023-04-18T02:36:21.513Z,28.15
2023-04-18T02:37:21.463Z,29.90
2023-04-18T02:38:21.480Z,27.14
2023-04-18T02:39:21.516Z,30.24
2023-04-18T02:40:21.551Z,30.27
2023-04-18T02:41:21.597Z,28.38
2023-04-18T02:42:21.624Z,26.13
2023-04-18T02:43:21.678Z,30.37
2023-04-18T02:44:21.727Z,29.08
2023-04-18T02:45:21.740Z,27.55
2023-04-18T02:46:21.856Z,29.63
2023-04-18T02:47:21.792Z,28.87
2023-04-18T02:48:21.970Z,29.73
2023-04-18T02:49:21.843Z,27.38
2023-04-18T02:50:21.889Z,27.14
2023-04-18T02:51:21.963Z,29.95
2023-04-18T02:52:21.933Z,28.35
2023-04-18T02:53:21.969Z,28.50
2023-04-18T02:54:22.048Z,29.36
2023-04-18T02:56:22.073Z,29.74
2023-04-18T02:57:22.093Z,29.63
2023-04-18T02:58:22.155Z,29.36
2023-04-18T02:59:22.175Z,27.09
2023-04-18T03:00:22.192Z,27.49
2023-04-18T03:01:22.292Z,27.09
2023-04-18T03:02:22.382Z,29.10
2023-04-18T03:03:22.341Z,29.42
2023-04-18T03:04:22.376Z,29.21
2023-04-18T03:05:22.375Z,33.25
2023-04-18T03:06:22.377Z,30.27
2023-04-18T03:07:22.401Z,29.53
2023-04-18T03:08:22.420Z,30.55
2023-04-18T03:09:22.464Z,32.11
2023-04-18T03:10:22.510Z,29.08
2023-04-18T03:11:22.547Z,27.55
2023-04-18T03:12:22.578Z,30.54
2023-04-18T03:13:22.618Z,29.88
2023-04-18T03:14:22.658Z,32.01
2023-04-18T03:15:22.664Z,25.07
2023-04-18T03:16:22.842Z,31.33
2023-04-18T03:17:22.742Z,31.54
2023-04-18T03:18:22.776Z,30.14
2023-04-18T03:19:22.802Z,33.02
2023-04-18T03:20:22.862Z,30.25
2023-04-18T03:21:22.942Z,31.96
2023-04-18T03:22:22.915Z,32.09
2023-04-18T03:23:22.925Z,29.01
2023-04-18T03:24:22.979Z,28.71
2023-04-18T03:25:22.995Z,30.72
2023-04-18T03:26:23.068Z,29.48
2023-04-18T03:27:23.082Z,31.10
2023-04-18T03:28:23.105Z,29.48
2023-04-18T03:29:23.252Z,31.73
2023-04-18T03:30:23.188Z,27.90
2023-04-18T03:31:23.227Z,28.47
2023-04-18T03:32:23.248Z,28.73
2023-04-18T03:33:23.245Z,30.01
2023-04-18T03:34:23.319Z,29.31
2023-04-18T03:35:23.322Z,27.54
2023-04-18T03:36:23.356Z,28.26
2023-04-18T03:37:23.372Z,30.59
2023-04-18T03:38:23.405Z,28.50
2023-04-18T03:39:23.456Z,29.80
2023-04-18T03:40:23.477Z,27.17
2023-04-18T03:41:23.502Z,31.74
2023-04-18T03:42:23.523Z,27.52
2023-04-18T03:43:23.608Z,27.26
2023-04-18T03:44:23.653Z,30.22
2023-04-18T03:45:23.674Z,26.78
2023-04-18T03:46:23.694Z,27.61
2023-04-18T03:47:23.689Z,26.62
2023-04-18T03:48:23.733Z,28.79
2023-04-18T03:49:23.747Z,25.86
2023-04-18T03:50:23.812Z,27.17
2023-04-18T03:51:23.841Z,31.03
2023-04-18T03:52:23.900Z,30.04
2023-04-18T03:53:23.871Z,27.02
2023-04-18T03:54:23.949Z,27.48
2023-04-18T03:55:23.978Z,25.99
2023-04-18T03:56:23.996Z,28.89
2023-04-18T03:57:23.994Z,29.58
2023-04-18T03:58:24.031Z,30.12
2023-04-18T03:59:24.092Z,31.39
2023-04-18T04:00:24.145Z,26.97
2023-04-18T04:01:24.129Z,29.73
2023-04-18T04:02:24.316Z,26.74
2023-04-18T04:03:24.349Z,29.92
2023-04-18T04:04:24.292Z,27.17
2023-04-18T04:05:24.257Z,29.40
2023-04-18T04:06:24.345Z,27.26
2023-04-18T04:07:24.326Z,25.81
2023-04-18T04:08:25.890Z,33.22
2023-04-18T04:09:24.562Z,27.32
2023-04-18T04:10:24.598Z,28.33
2023-04-18T04:11:24.618Z,27.69
2023-04-18T04:12:24.644Z,31.65
2023-04-18T04:13:24.684Z,28.23
2023-04-18T04:14:24.758Z,29.32
2023-04-18T04:15:24.767Z,31.42
2023-04-18T04:16:24.858Z,28.19
2023-04-18T04:17:24.871Z,32.74
2023-04-18T04:18:24.855Z,28.41
2023-04-18T04:19:24.879Z,30.62
2023-04-18T04:20:25.249Z,31.33
2023-04-18T04:21:24.962Z,29.15
2023-04-18T04:22:24.973Z,30.86
2023-04-18T04:23:25.041Z,29.26
2023-04-18T04:24:25.073Z,28.63
2023-04-18T04:25:25.093Z,29.59
2023-04-18T04:26:25.116Z,31.68
2023-04-18T04:27:25.140Z,26.71
2023-04-18T04:28:25.165Z,31.40
2023-04-18T04:29:25.212Z,28.38
2023-04-18T04:30:25.230Z,27.19
2023-04-18T04:31:25.312Z,30.33
2023-04-18T04:32:25.524Z,29.90
2023-04-18T04:33:25.457Z,28.94
2023-04-18T04:34:25.358Z,31.63
2023-04-18T04:35:25.446Z,29.82
2023-04-18T04:36:25.497Z,27.79
2023-04-18T04:37:25.513Z,28.80
2023-04-18T04:38:25.545Z,27.99
2023-04-18T04:39:25.535Z,29.51
2023-04-18T04:40:25.579Z,28.08
2023-04-18T04:41:25.604Z,28.36
2023-04-18T04:42:25.606Z,28.33
2023-04-18T04:43:25.682Z,30.54
2023-04-18T04:44:25.714Z,26.26
2023-04-18T04:45:25.726Z,28.91
2023-04-18T04:46:25.828Z,29.68
2023-04-18T04:47:25.819Z,29.88
2023-04-18T04:48:25.812Z,30.69
2023-04-18T04:49:26.739Z,28.91
2023-04-18T04:50:25.902Z,29.35
2023-04-18T04:51:25.965Z,28.49
2023-04-18T04:52:26.005Z,26.95
2023-04-18T04:53:26.011Z,26.68
2023-04-18T04:54:26.014Z,27.58
2023-04-18T04:55:26.049Z,32.41
2023-04-18T04:56:26.107Z,30.12
2023-04-18T04:57:26.142Z,27.58
2023-04-18T04:58:26.157Z,26.97
2023-04-18T04:59:26.219Z,30.40
2023-04-18T05:00:26.260Z,30.12
2023-04-18T05:01:26.320Z,30.17
2023-04-18T05:02:26.479Z,29.50
2023-04-18T05:03:26.480Z,31.31
2023-04-18T05:04:26.608Z,31.35
2023-04-18T05:05:26.390Z,30.89
2023-04-18T05:06:26.454Z,26.52
2023-04-18T05:07:26.462Z,27.58
2023-04-18T05:08:26.506Z,27.79
2023-04-18T05:09:26.540Z,27.55
2023-04-18T05:10:26.564Z,29.65
2023-04-18T05:11:26.583Z,27.21
2023-04-18T05:12:26.823Z,29.09
2023-04-18T05:13:26.720Z,26.70
2023-04-18T05:14:26.682Z,26.70
2023-04-18T05:15:26.764Z,26.12
2023-04-18T05:16:26.785Z,26.31
2023-04-18T05:17:26.788Z,25.89
2023-04-18T05:18:26.866Z,27.00
2023-04-18T05:19:26.896Z,27.56
2023-04-18T05:20:26.918Z,28.55
2023-04-18T05:21:26.922Z,27.14
2023-04-18T05:22:26.940Z,25.78
2023-04-18T05:23:27.241Z,25.60
2023-04-18T05:24:27.108Z,27.30
2023-04-18T05:25:27.098Z,28.15
2023-04-18T05:26:27.755Z,28.71
2023-04-18T05:27:27.211Z,30.67
2023-04-18T05:28:27.227Z,28.74
2023-04-18T05:29:27.209Z,26.09
2023-04-18T05:30:27.306Z,25.79
2023-04-18T05:31:27.394Z,25.32
2023-04-18T05:32:27.322Z,26.50
2023-04-18T05:33:27.406Z,29.15
2023-04-18T05:34:27.407Z,31.64
2023-04-18T05:35:27.423Z,27.59
2023-04-18T05:36:27.389Z,29.89
2023-04-18T05:37:27.426Z,30.16
2023-04-18T05:38:27.426Z,31.28
2023-04-18T05:39:27.442Z,32.40
2023-04-18T05:40:27.754Z,37.05
2023-04-18T05:41:27.445Z,41.04
2023-04-18T05:42:27.471Z,44.61
2023-04-18T05:43:27.772Z,47.48
2023-04-18T05:44:27.571Z,50.75
2023-04-18T05:45:27.781Z,57.11
2023-04-18T05:46:28.307Z,61.89
2023-04-18T05:47:27.705Z,69.13
2023-04-18T05:48:27.769Z,69.42
2023-04-18T05:49:27.809Z,69.24
2023-04-18T05:50:28.297Z,75.85
2023-04-18T05:51:27.949Z,80.76
2023-04-18T05:52:27.986Z,78.99
2023-04-18T05:53:28.342Z,83.23
2023-04-18T05:54:28.083Z,83.99
2023-04-18T05:55:28.171Z,91.49
2023-04-18T05:56:28.206Z,92.16
2023-04-18T05:57:28.237Z,92.52
2023-04-18T05:58:28.804Z,96.55
2023-04-18T05:59:28.323Z,97.75
2023-04-18T06:00:28.369Z,99.99
2023-04-18T06:01:28.436Z,102.05
2023-04-18T06:02:28.608Z,110.07
2023-04-18T06:03:28.605Z,108.82
2023-04-18T06:04:28.676Z,112.45
2023-04-18T06:05:28.868Z,113.21
2023-04-18T06:06:28.586Z,115.31
2023-04-18T06:07:28.593Z,116.82
2023-04-18T06:08:28.641Z,118.01
2023-04-18T06:09:28.647Z,121.50
2023-04-18T06:10:28.673Z,121.65
2023-04-18T06:11:28.698Z,122.08
2023-04-18T06:12:28.695Z,123.93
2023-04-18T06:13:28.767Z,126.09
2023-04-18T06:14:28.731Z,126.36
2023-04-18T06:15:28.745Z,128.51
2023-04-18T06:16:28.770Z,129.77
2023-04-18T06:17:28.791Z,134.69
2023-04-18T06:18:28.800Z,152.89
2023-04-18T06:19:28.816Z,154.46
2023-04-18T06:20:28.890Z,146.65
2023-04-18T06:21:28.838Z,148.89
2023-04-18T06:22:28.853Z,165.05
2023-04-18T06:23:28.853Z,157.41
2023-04-18T06:24:31.161Z,155.07
2023-04-18T06:25:28.932Z,154.70
2023-04-18T06:26:29.046Z,153.60
2023-04-18T06:27:31.613Z,149.42
2023-04-18T06:28:28.895Z,150.07
2023-04-18T06:29:28.942Z,149.21
2023-04-18T06:30:28.868Z,146.15
2023-04-18T06:31:28.942Z,143.26
2023-04-18T06:32:28.900Z,145.89
2023-04-18T06:33:29.050Z,144.75
2023-04-18T06:34:28.921Z,145.21
2023-04-18T06:35:28.861Z,138.41
2023-04-18T06:36:28.837Z,141.83
2023-04-18T06:37:28.836Z,148.10
2023-04-18T06:38:29.310Z,144.88
2023-04-18T06:39:28.990Z,164.74
2023-04-18T06:40:29.289Z,172.93
2023-04-18T06:41:28.772Z,189.92
2023-04-18T06:42:28.825Z,184.84
2023-04-18T06:43:28.771Z,186.57
2023-04-18T06:44:31.321Z,180.97
2023-04-18T06:45:29.322Z,181.13
2023-04-18T06:46:29.000Z,181.78
2023-04-18T06:47:28.927Z,175.63
2023-04-18T06:48:28.928Z,173.10
2023-04-18T06:49:28.958Z,176.72
2023-04-18T06:50:29.440Z,167.73
2023-04-18T06:51:28.945Z,166.55
2023-04-18T06:52:28.957Z,168.54
2023-04-18T06:53:28.925Z,167.87
2023-04-18T06:54:28.944Z,154.34
2023-04-18T06:55:28.940Z,159.31
2023-04-18T06:56:28.939Z,154.86
2023-04-18T06:57:28.944Z,152.40
2023-04-18T06:58:28.949Z,154.19
2023-04-18T06:59:28.944Z,167.60
2023-04-18T07:00:29.476Z,176.86
2023-04-18T07:01:29.054Z,168.11
2023-04-18T07:02:29.037Z,178.35
2023-04-18T07:03:29.837Z,173.03
2023-04-18T07:04:28.990Z,173.08
2023-04-18T07:05:29.282Z,179.22
2023-04-18T07:06:28.964Z,178.19
2023-04-18T07:07:28.970Z,181.82
2023-04-18T07:08:28.965Z,177.19
2023-04-18T07:09:28.953Z,176.96
2023-04-18T07:10:29.041Z,175.64
2023-04-18T07:11:28.941Z,176.45
2023-04-18T07:12:28.976Z,178.60
2023-04-18T07:13:28.997Z,169.11
2023-04-18T07:14:28.977Z,174.85
2023-04-18T07:15:28.963Z,170.01
2023-04-18T07:16:29.074Z,170.37
2023-04-18T07:17:29.068Z,172.31
2023-04-18T07:18:37.241Z,161.53
2023-04-18T07:19:29.992Z,161.90
2023-04-18T07:20:29.282Z,162.06
2023-04-18T07:21:28.947Z,160.22
2023-04-18T07:22:28.950Z,162.70
2023-04-18T07:23:28.941Z,174.32
2023-04-18T07:24:28.965Z,166.36
2023-04-18T07:25:28.920Z,167.03
2023-04-18T07:26:28.912Z,163.53
2023-04-18T07:27:28.890Z,168.20
2023-04-18T07:28:28.911Z,153.33
2023-04-18T07:29:28.879Z,162.56
2023-04-18T07:30:28.876Z,174.31
2023-04-18T07:31:28.977Z,168.04
2023-04-18T07:32:28.913Z,172.44
2023-04-18T07:33:28.872Z,169.41
2023-04-18T07:34:29.327Z,175.51
2023-04-18T07:35:28.839Z,176.39
2023-04-18T07:36:28.869Z,180.61
2023-04-18T07:37:28.862Z,176.70
2023-04-18T07:38:28.850Z,172.22
2023-04-18T07:39:28.897Z,169.11
2023-04-18T07:40:28.866Z,177.40
2023-04-18T07:41:28.912Z,178.37
2023-04-18T07:42:28.960Z,172.18
2023-04-18T07:43:28.940Z,183.43
2023-04-18T07:44:29.060Z,185.68
2023-04-18T07:45:29.112Z,189.62
2023-04-18T07:46:29.133Z,182.10
2023-04-18T07:47:31.214Z,200.05
2023-04-18T07:48:29.102Z,187.17
2023-04-18T07:49:29.116Z,184.54
2023-04-18T07:50:29.315Z,179.56
2023-04-18T07:51:29.084Z,166.57
2023-04-18T07:52:29.280Z,164.86
2023-04-18T07:53:29.076Z,169.78
2023-04-18T07:54:29.091Z,173.92
2023-04-18T07:55:29.324Z,158.70
2023-04-18T07:56:29.076Z,145.95
2023-04-18T07:57:29.093Z,140.79
2023-04-18T07:58:29.056Z,140.68
2023-04-18T07:59:29.314Z,132.44
2023-04-18T08:00:29.864Z,139.60
2023-04-18T08:01:29.011Z,125.53
2023-04-18T08:02:29.135Z,117.39
2023-04-18T08:03:29.189Z,113.47
2023-04-18T08:04:30.396Z,122.93
2023-04-18T08:05:29.394Z,118.93
2023-04-18T08:06:29.004Z,111.32
2023-04-18T08:07:28.989Z,118.79
2023-04-18T08:08:29.182Z,103.45
2023-04-18T08:09:28.961Z,103.80
2023-04-18T08:10:28.967Z,101.55
2023-04-18T08:11:28.941Z,97.64
2023-04-18T08:12:28.935Z,74.86
2023-04-18T08:13:28.918Z,86.38
2023-04-18T08:14:28.924Z,88.96
2023-04-18T08:15:28.899Z,85.02
2023-04-18T08:16:28.932Z,0.83
2023-04-18T08:17:28.989Z,56.75
2023-04-18T08:18:29.021Z,53.93
2023-04-18T08:19:29.081Z,38.91
2023-04-18T08:20:29.108Z,59.20
2023-04-18T08:21:29.518Z,68.64
2023-04-18T08:22:29.217Z,104.32
2023-04-18T08:23:29.259Z,123.30
2023-04-18T08:24:29.375Z,116.27
2023-04-18T08:25:29.342Z,109.73
2023-04-18T08:26:29.880Z,110.37
2023-04-18T08:27:29.416Z,105.74
2023-04-18T08:28:29.451Z,108.00
2023-04-18T08:29:29.518Z,103.32
2023-04-18T08:30:29.592Z,103.85
2023-04-18T08:31:29.851Z,93.00
2023-04-18T08:32:29.827Z,95.57
2023-04-18T08:33:29.699Z,94.93
2023-04-18T08:34:29.857Z,88.74
2023-04-18T08:35:29.843Z,83.45
2023-04-18T08:36:29.869Z,81.08
2023-04-18T08:37:29.945Z,80.88
2023-04-18T08:38:29.994Z,79.44
2023-04-18T08:39:30.044Z,74.76
2023-04-18T08:40:30.233Z,76.62
2023-04-18T08:41:30.318Z,90.21
2023-04-18T08:42:30.189Z,102.34
2023-04-18T08:43:30.234Z,101.77
2023-04-18T08:44:30.301Z,105.25
2023-04-18T08:45:30.429Z,109.53
2023-04-18T08:46:30.829Z,110.07
2023-04-18T08:47:30.520Z,111.17
2023-04-18T08:48:30.500Z,107.27
2023-04-18T08:49:30.555Z,110.08
2023-04-18T08:50:30.630Z,117.04
2023-04-18T08:51:30.892Z,117.25
2023-04-18T08:52:30.630Z,121.02
2023-04-18T08:53:30.662Z,124.71
2023-04-18T08:54:30.690Z,127.54
2023-04-18T08:55:30.846Z,124.99
2023-04-18T08:56:30.879Z,129.80
2023-04-18T08:57:30.737Z,131.61
2023-04-18T08:58:30.794Z,134.87
2023-04-18T08:59:30.777Z,142.62
2023-04-18T09:00:30.817Z,149.49
2023-04-18T09:01:30.876Z,152.80
2023-04-18T09:02:30.919Z,161.73
2023-04-18T09:03:30.867Z,168.78
2023-04-18T09:04:30.880Z,174.21
2023-04-18T09:05:30.963Z,180.16
2023-04-18T09:06:30.916Z,175.54
2023-04-18T09:07:30.909Z,173.63
2023-04-18T09:08:30.911Z,171.43
2023-04-18T09:09:30.927Z,169.33
2023-04-18T09:10:31.038Z,164.65
2023-04-18T09:11:30.940Z,169.98
2023-04-18T09:12:30.924Z,171.30
2023-04-18T09:13:30.962Z,173.22
2023-04-18T09:14:30.965Z,174.83
2023-04-18T09:15:30.998Z,175.61
2023-04-18T09:16:31.002Z,169.09
2023-04-18T09:17:30.990Z,173.20
2023-04-18T09:18:30.932Z,148.60
2023-04-18T09:19:30.940Z,159.22
2023-04-18T09:20:31.444Z,169.26
2023-04-18T09:21:31.361Z,177.17
2023-04-18T09:22:30.954Z,184.86
2023-04-18T09:23:30.927Z,190.28
2023-04-18T09:24:30.917Z,189.43
2023-04-18T09:25:31.047Z,186.97
2023-04-18T09:26:30.966Z,189.70
2023-04-18T09:27:30.922Z,193.70
2023-04-18T09:28:30.956Z,184.90
2023-04-18T09:29:31.070Z,181.33
2023-04-18T09:30:30.956Z,193.16
2023-04-18T09:31:31.072Z,195.42
2023-04-18T09:32:31.061Z,188.40
2023-04-18T09:33:32.893Z,182.53
2023-04-18T09:34:31.010Z,147.57
2023-04-18T09:35:31.351Z,102.29
2023-04-18T09:36:31.073Z,127.69
2023-04-18T09:37:30.952Z,104.12
2023-04-18T09:38:30.980Z,116.38
2023-04-18T09:39:31.026Z,108.33
2023-04-18T09:40:31.389Z,109.92
2023-04-18T09:41:31.086Z,100.74
2023-04-18T09:42:31.097Z,89.88
2023-04-18T09:43:31.146Z,100.24
2023-04-18T09:44:31.132Z,106.23
2023-04-18T09:45:31.118Z,101.65
2023-04-18T09:46:31.219Z,24.21
2023-04-18T09:47:31.205Z,65.71
2023-04-18T09:48:31.227Z,0.00
2023-04-18T09:49:31.203Z,0.00
2023-04-18T09:50:31.485Z,27.12
2023-04-18T09:51:31.378Z,55.53
2023-04-18T09:52:31.417Z,62.91
2023-04-18T09:53:31.416Z,73.93
2023-04-18T09:54:31.493Z,0.00
2023-04-18T09:55:31.533Z,31.77
2023-04-18T09:56:31.605Z,53.30
2023-04-18T09:57:31.647Z,57.78
2023-04-18T09:58:31.637Z,44.47
2023-04-18T09:59:31.620Z,58.59
2023-04-18T10:00:31.645Z,66.12
2023-04-18T10:01:31.651Z,62.65
2023-04-18T10:02:31.683Z,47.86
2023-04-18T10:03:31.754Z,62.14
2023-04-18T10:04:31.779Z,64.65
2023-04-18T10:05:31.669Z,35.08
2023-04-18T10:06:31.658Z,64.62
2023-04-18T10:07:31.712Z,66.37
2023-04-18T10:08:32.715Z,57.61
2023-04-18T10:09:31.655Z,67.61
2023-04-18T10:10:31.674Z,58.50
2023-04-18T10:11:31.649Z,44.23
2023-04-18T10:12:31.619Z,60.90
2023-04-18T10:13:31.708Z,9.66
2023-04-18T10:14:31.702Z,66.73
2023-04-18T10:15:31.686Z,38.61
2023-04-18T10:16:32.543Z,60.75
2023-04-18T10:17:31.727Z,73.41
2023-04-18T10:18:31.684Z,65.49
2023-04-18T10:19:31.650Z,78.54
2023-04-18T10:20:31.650Z,86.70
2023-04-18T10:21:31.678Z,86.80
2023-04-18T10:22:31.679Z,75.56
2023-04-18T10:23:31.669Z,86.69
2023-04-18T10:24:31.672Z,85.00
2023-04-18T10:25:31.677Z,86.59
2023-04-18T10:26:32.493Z,83.08
2023-04-18T10:27:31.656Z,91.38
2023-04-18T10:28:31.641Z,91.09
2023-04-18T10:29:31.668Z,97.68
2023-04-18T10:30:31.643Z,102.95
2023-04-18T10:31:31.915Z,105.34
2023-04-18T10:32:31.699Z,112.20
2023-04-18T10:33:32.546Z,113.35
2023-04-18T10:34:32.398Z,118.56
2023-04-18T10:35:31.831Z,124.48
2023-04-18T10:36:31.900Z,129.14
2023-04-18T10:37:31.945Z,133.66
2023-04-18T10:38:31.997Z,137.76
2023-04-18T10:39:32.014Z,142.72
2023-04-18T10:40:32.035Z,146.63
2023-04-18T10:41:32.417Z,152.52
2023-04-18T10:42:32.136Z,160.14
2023-04-18T10:43:32.200Z,161.57
2023-04-18T10:44:32.191Z,167.52
2023-04-18T10:45:32.201Z,172.11
2023-04-18T10:46:33.051Z,175.11
2023-04-18T10:47:32.526Z,179.76
2023-04-18T10:48:32.292Z,182.24
2023-04-18T10:49:32.967Z,184.55
2023-04-18T10:50:32.348Z,189.26
2023-04-18T10:51:32.392Z,192.97
2023-04-18T10:52:32.426Z,199.29
2023-04-18T10:53:32.413Z,200.24
2023-04-18T10:54:32.446Z,203.03
2023-04-18T10:55:32.461Z,204.84
2023-04-18T10:56:32.513Z,205.85
2023-04-18T10:57:32.530Z,204.66
2023-04-18T10:58:32.533Z,206.41
2023-04-18T10:59:32.553Z,207.38
2023-04-18T11:00:32.686Z,217.36
2023-04-18T11:01:33.120Z,215.13
2023-04-18T11:02:32.745Z,218.44
2023-04-18T11:03:32.662Z,223.29
2023-04-18T11:04:32.716Z,227.37
2023-04-18T11:05:32.688Z,230.96
2023-04-18T11:06:32.733Z,232.11
2023-04-18T11:07:32.717Z,235.82
2023-04-18T11:08:32.721Z,237.95
2023-04-18T11:09:32.792Z,240.27
2023-04-18T11:10:32.766Z,240.76
2023-04-18T11:11:32.778Z,241.84
2023-04-18T11:12:32.808Z,244.96
2023-04-18T11:13:32.801Z,249.87
2023-04-18T11:14:32.798Z,249.28
2023-04-18T11:15:32.854Z,250.00
2023-04-18T11:16:32.878Z,250.00
2023-04-18T11:17:32.973Z,249.13
2023-04-18T11:18:32.874Z,250.72
2023-04-18T11:19:32.814Z,247.46
2023-04-18T11:20:32.856Z,247.38
2023-04-18T11:21:32.897Z,244.72
2023-04-18T11:22:32.889Z,238.33
2023-04-18T11:23:32.887Z,235.05
2023-04-18T11:24:32.919Z,232.13
2023-04-18T11:25:33.890Z,228.54
2023-04-18T11:26:33.377Z,226.45
2023-04-18T11:27:33.419Z,223.60
2023-04-18T11:28:33.057Z,209.39
2023-04-18T11:29:33.050Z,212.85
2023-04-18T11:30:33.067Z,208.30
2023-04-18T11:31:33.183Z,204.81
2023-04-18T11:32:33.211Z,205.92
2023-04-18T11:33:33.199Z,203.04
2023-04-18T11:34:33.217Z,198.42
2023-04-18T11:35:33.218Z,194.09
2023-04-18T11:36:33.225Z,196.19
2023-04-18T11:37:33.283Z,190.94
2023-04-18T11:38:33.282Z,191.40
2023-04-18T11:39:33.361Z,190.28
2023-04-18T11:40:33.353Z,189.55
2023-04-18T11:41:33.405Z,186.90
2023-04-18T11:42:33.441Z,191.41
2023-04-18T11:43:33.489Z,192.23
2023-04-18T11:44:35.621Z,179.95
2023-04-18T11:45:33.500Z,176.26
2023-04-18T11:46:33.610Z,165.00
2023-04-18T11:47:33.513Z,156.36
2023-04-18T11:48:33.479Z,165.34
2023-04-18T11:49:33.497Z,133.81
2023-04-18T11:50:33.465Z,54.00
2023-04-18T11:51:33.451Z,72.42
2023-04-18T11:52:33.458Z,76.85
2023-04-18T11:53:33.442Z,85.17
2023-04-18T11:54:33.436Z,45.15
2023-04-18T11:55:33.439Z,88.02
2023-04-18T11:56:35.296Z,61.06
2023-04-18T11:57:33.424Z,0.16
2023-04-18T11:58:33.407Z,0.00
2023-04-18T11:59:33.416Z,0.00
2023-04-18T12:00:33.408Z,0.00
2023-04-18T12:01:33.393Z,0.00
2023-04-18T12:02:33.464Z,0.00
2023-04-18T12:03:33.469Z,22.07
2023-04-18T12:04:33.558Z,10.91
2023-04-18T12:05:33.618Z,54.99
2023-04-18T12:06:33.380Z,62.16
2023-04-18T12:07:33.382Z,2.26
2023-04-18T12:08:33.349Z,22.11
2023-04-18T12:09:33.359Z,7.85
2023-04-18T12:10:33.342Z,25.40
2023-04-18T12:11:33.337Z,49.94
2023-04-18T12:12:33.320Z,6.34
2023-04-18T12:13:33.340Z,18.79
2023-04-18T12:14:33.340Z,43.80
2023-04-18T12:15:33.357Z,15.12
2023-04-18T12:16:33.538Z,46.11
2023-04-18T12:17:33.326Z,50.37
2023-04-18T12:18:33.283Z,83.13
2023-04-18T12:19:33.308Z,55.17
2023-04-18T12:20:33.281Z,28.52
2023-04-18T12:21:33.272Z,16.27
2023-04-18T12:22:33.422Z,26.05
2023-04-18T12:23:35.916Z,57.74
2023-04-18T12:24:33.435Z,58.58
2023-04-18T12:25:33.931Z,64.01
2023-04-18T12:26:33.922Z,58.72
2023-04-18T12:27:33.429Z,44.08
2023-04-18T12:28:33.289Z,58.36
2023-04-18T12:29:33.270Z,44.97
2023-04-18T12:30:34.134Z,36.13
2023-04-18T12:31:33.314Z,24.24
2023-04-18T12:32:33.480Z,7.50
2023-04-18T12:33:33.203Z,17.94
2023-04-18T12:34:33.282Z,23.14
2023-04-18T12:35:33.206Z,4.22
2023-04-18T12:36:33.194Z,2.79
2023-04-18T12:37:33.921Z,43.06
2023-04-18T12:38:33.175Z,41.89
2023-04-18T12:39:33.150Z,47.34
2023-04-18T12:40:33.145Z,29.60
2023-04-18T12:41:33.136Z,10.86
2023-04-18T12:42:33.421Z,9.80
2023-04-18T12:43:33.241Z,3.81
2023-04-18T12:44:33.107Z,41.63
2023-04-18T12:45:33.112Z,31.26